Estación Meteorológica Peña el Pijo (Robertgarden) [ 12/10/18 11:30:38 CET ]

Fecha Hora Presion(HPa) Temp (°C) Humedad % Rocio (°C) Viento ( m/s) Direccion Lluvia 1Hora(mm) Lluvia 24H(mm) LLuvia Total(mm)
2018-Oct-26 01:01:36 1009.800 7.3 75 3.1         84.95
2018-Oct-26 02:01:31 1009.400 6.4 76 2.5         84.95
2018-Oct-26 03:05:46 1009.200 5.9 78 2.3         84.95
2018-Oct-26 04:01:44 1008.700 5.6 79 2.2         84.95
2018-Oct-26 05:01:44 1008.200 5.3 79 1.9         84.95
2018-Oct-26 06:06:14 1007.400 5.1 80 1.9         84.95
2018-Oct-26 07:01:22 1007.500 4.5 80 1.4         84.95
2018-Oct-26 08:01:22 1007.500 4.4 82 1.4         84.95
2018-Oct-26 09:01:29 1007.500 4.4 83 1.8         84.95
2018-Oct-26 10:01:21 1007.500 8.5 82 5.5         84.95
2018-Oct-26 11:01:30 1007.600 14.1 67 8.0         84.95
2018-Oct-26 12:01:36 1007.100 18.1 56 9.1         84.95
2018-Oct-26 13:01:25 1006.400 22.1 39 7.9         84.95
2018-Oct-26 14:01:42 1005.500 23.4 35 7.0         84.95
2018-Oct-26 15:01:57 1005.200 23.3 35 6.9         84.95
2018-Oct-26 16:01:57 1004.600 20.9 39 6.4         84.95
2018-Oct-26 17:01:36 1005.100 19.0 43 6.1         84.95
2018-Oct-26 18:01:52 1005.000 14.6 69 9.0     0.51 0.51 85.47
2018-Oct-26 19:01:50 1004.600 12.9 77 8.9     0.51 1.03 85.98
2018-Oct-26 20:01:50 1004.400 11.6 80 8.3       1.03 85.98
2018-Oct-26 21:01:33 1004.200 10.6 82 7.6       1.03 85.98
2018-Oct-26 22:01:46 1004.000 9.9 84 7.3       1.03 85.98
2018-Oct-26 23:02:05 1004.100 9.4 85 7.0       1.03 85.98

Temperatura Máxima:23°    Temperatura Mínima:
Presión Máxima:1009.800 Hpa    Presión Mínima:1004.000 Hpa


Volver